Terminal Aerodrome Forecast
Issued by NWS Jackson, KY

Home | Current Version | Previous Version | Text Only | Print | Product List | Glossary On
Versions: 1 2 3 4 5 6 7 8 9 10 11 12 13 14 15 16 17 18
000
FTUS43 KJKL 250539
TAFLOZ
TAF
KLOZ 250539Z 2506/2606 VRB05KT P6SM SCT250
     FM251600 20009G17KT P6SM VCTS BKN050CB
     FM252100 21010G20KT 5SM -TSRA SCT020 BKN040CB
     FM260100 22006KT P6SM VCTS BKN040CB=

USA.gov is the U.S. government's official web portal to all federal, state and local government web resources and services.